Itapetim, Brazil
Current Conditions -  °F | °C
As of 5:00 PM on Wednesday 22 Oct 2014 (Local Time) from SBKG Reporting Station
Clear Clear  
Wind Chill: 77°   Ceiling: Unl
Heat Index: 79°   Visibility: 6mi
Dew Point: 64°   Wind: 14mph
Humidity: 65%   Direction: 120°ESE
Pressure: 29.97"   Gusts: NA
Location:  7.38°S, 37.19°W
Report Text: SBKG 222000Z 12012KT CAVOK 25/18 Q1015
Loading
Personal Weather Stations






























Interactive Weather Map
Tropical Storm Tracking
New forecast layout! Learn more

10-Day Weather Forecast

Advertisements
Track Severe Weather on mobile